sensor_id;sensor_type;location;lat;lon;timestamp;temperature;humidity
12981;DHT22;6555;50.468;8.480;2022-10-30T00:04:12;15.80;60.80
12981;DHT22;6555;50.468;8.480;2022-10-30T00:09:14;15.80;61.00
12981;DHT22;6555;50.468;8.480;2022-10-30T00:14:20;15.80;60.90
12981;DHT22;6555;50.468;8.480;2022-10-30T00:19:24;15.80;61.00
12981;DHT22;6555;50.468;8.480;2022-10-30T00:24:27;15.80;61.10
12981;DHT22;6555;50.468;8.480;2022-10-30T00:29:30;15.80;61.00
12981;DHT22;6555;50.468;8.480;2022-10-30T00:34:36;15.80;61.10
12981;DHT22;6555;50.468;8.480;2022-10-30T00:39:41;15.80;61.20
12981;DHT22;6555;50.468;8.480;2022-10-30T00:44:47;15.80;61.10
12981;DHT22;6555;50.468;8.480;2022-10-30T00:49:55;15.80;61.30
12981;DHT22;6555;50.468;8.480;2022-10-30T00:55:02;15.80;61.30
12981;DHT22;6555;50.468;8.480;2022-10-30T01:00:07;15.70;60.90
12981;DHT22;6555;50.468;8.480;2022-10-30T01:05:14;15.70;60.80
12981;DHT22;6555;50.468;8.480;2022-10-30T01:10:20;15.70;61.20
12981;DHT22;6555;50.468;8.480;2022-10-30T01:15:27;15.60;61.10
12981;DHT22;6555;50.468;8.480;2022-10-30T01:20:46;15.60;61.40
12981;DHT22;6555;50.468;8.480;2022-10-30T01:25:55;15.60;61.70
12981;DHT22;6555;50.468;8.480;2022-10-30T01:31:15;15.60;61.60
12981;DHT22;6555;50.468;8.480;2022-10-30T01:36:26;15.60;61.50
12981;DHT22;6555;50.468;8.480;2022-10-30T01:41:32;15.60;61.50
12981;DHT22;6555;50.468;8.480;2022-10-30T01:46:44;15.60;61.20
12981;DHT22;6555;50.468;8.480;2022-10-30T01:51:59;15.60;61.40
12981;DHT22;6555;50.468;8.480;2022-10-30T01:57:08;15.50;61.40
12981;DHT22;6555;50.468;8.480;2022-10-30T02:02:15;15.50;62.10
12981;DHT22;6555;50.468;8.480;2022-10-30T02:07:19;15.50;62.20
12981;DHT22;6555;50.468;8.480;2022-10-30T02:12:25;15.50;61.60
12981;DHT22;6555;50.468;8.480;2022-10-30T02:17:28;15.40;61.40
12981;DHT22;6555;50.468;8.480;2022-10-30T02:22:32;15.40;61.30
12981;DHT22;6555;50.468;8.480;2022-10-30T02:27:36;15.40;61.20
12981;DHT22;6555;50.468;8.480;2022-10-30T02:32:43;15.40;61.20
12981;DHT22;6555;50.468;8.480;2022-10-30T02:37:48;15.40;61.20
12981;DHT22;6555;50.468;8.480;2022-10-30T02:42:51;15.30;61.20
12981;DHT22;6555;50.468;8.480;2022-10-30T02:47:55;15.20;61.20
12981;DHT22;6555;50.468;8.480;2022-10-30T02:53:01;15.20;61.30
12981;DHT22;6555;50.468;8.480;2022-10-30T02:58:04;15.20;61.40
12981;DHT22;6555;50.468;8.480;2022-10-30T03:03:08;15.20;61.30
12981;DHT22;6555;50.468;8.480;2022-10-30T03:08:12;15.20;61.30
12981;DHT22;6555;50.468;8.480;2022-10-30T03:13:15;15.10;61.60
12981;DHT22;6555;50.468;8.480;2022-10-30T03:18:18;15.10;61.50
12981;DHT22;6555;50.468;8.480;2022-10-30T03:23:23;15.10;61.40
12981;DHT22;6555;50.468;8.480;2022-10-30T03:28:27;15.10;61.50
12981;DHT22;6555;50.468;8.480;2022-10-30T03:33:32;15.10;61.60
12981;DHT22;6555;50.468;8.480;2022-10-30T03:38:36;15.00;61.50
12981;DHT22;6555;50.468;8.480;2022-10-30T03:43:40;15.10;61.80
12981;DHT22;6555;50.468;8.480;2022-10-30T03:48:43;15.10;61.70
12981;DHT22;6555;50.468;8.480;2022-10-30T03:53:48;15.00;61.60
12981;DHT22;6555;50.468;8.480;2022-10-30T03:58:52;15.00;61.60
12981;DHT22;6555;50.468;8.480;2022-10-30T04:03:58;15.10;61.60
12981;DHT22;6555;50.468;8.480;2022-10-30T04:09:04;15.00;61.50
12981;DHT22;6555;50.468;8.480;2022-10-30T04:14:13;15.00;61.60
12981;DHT22;6555;50.468;8.480;2022-10-30T04:19:16;15.00;61.60
12981;DHT22;6555;50.468;8.480;2022-10-30T04:24:22;15.00;61.60
12981;DHT22;6555;50.468;8.480;2022-10-30T04:29:29;15.00;61.70
12981;DHT22;6555;50.468;8.480;2022-10-30T04:34:32;15.00;61.40
12981;DHT22;6555;50.468;8.480;2022-10-30T04:39:38;15.00;61.40
12981;DHT22;6555;50.468;8.480;2022-10-30T04:44:52;14.90;61.60
12981;DHT22;6555;50.468;8.480;2022-10-30T04:49:55;14.90;61.60
12981;DHT22;6555;50.468;8.480;2022-10-30T04:54:59;14.90;61.50
12981;DHT22;6555;50.468;8.480;2022-10-30T05:00:04;14.90;61.60
12981;DHT22;6555;50.468;8.480;2022-10-30T05:05:07;14.80;61.50
12981;DHT22;6555;50.468;8.480;2022-10-30T05:10:13;14.80;61.50
12981;DHT22;6555;50.468;8.480;2022-10-30T05:15:16;14.80;61.50
12981;DHT22;6555;50.468;8.480;2022-10-30T05:20:19;14.70;61.50
12981;DHT22;6555;50.468;8.480;2022-10-30T05:25:24;14.70;61.60
12981;DHT22;6555;50.468;8.480;2022-10-30T05:30:31;14.70;61.60
12981;DHT22;6555;50.468;8.480;2022-10-30T05:35:41;14.70;61.60
12981;DHT22;6555;50.468;8.480;2022-10-30T05:40:46;14.70;61.60
12981;DHT22;6555;50.468;8.480;2022-10-30T05:45:49;14.70;61.80
12981;DHT22;6555;50.468;8.480;2022-10-30T05:50:54;14.60;61.70
12981;DHT22;6555;50.468;8.480;2022-10-30T05:56:02;14.70;62.00
12981;DHT22;6555;50.468;8.480;2022-10-30T06:01:08;14.70;62.00
12981;DHT22;6555;50.468;8.480;2022-10-30T06:06:20;14.70;61.90
12981;DHT22;6555;50.468;8.480;2022-10-30T06:11:25;14.70;62.00
12981;DHT22;6555;50.468;8.480;2022-10-30T06:16:32;14.70;62.00
12981;DHT22;6555;50.468;8.480;2022-10-30T06:21:54;14.70;61.80
12981;DHT22;6555;50.468;8.480;2022-10-30T06:27:23;14.70;61.80
12981;DHT22;6555;50.468;8.480;2022-10-30T06:32:26;14.60;61.70
12981;DHT22;6555;50.468;8.480;2022-10-30T06:37:29;14.60;61.70
12981;DHT22;6555;50.468;8.480;2022-10-30T06:42:42;14.60;61.80
12981;DHT22;6555;50.468;8.480;2022-10-30T06:48:00;14.60;62.10
12981;DHT22;6555;50.468;8.480;2022-10-30T06:53:08;14.60;62.00
12981;DHT22;6555;50.468;8.480;2022-10-30T06:58:14;14.70;62.10
12981;DHT22;6555;50.468;8.480;2022-10-30T07:03:26;14.60;62.00
12981;DHT22;6555;50.468;8.480;2022-10-30T07:08:29;14.60;62.00
12981;DHT22;6555;50.468;8.480;2022-10-30T07:13:33;14.70;62.20
12981;DHT22;6555;50.468;8.480;2022-10-30T07:18:57;14.70;62.40
12981;DHT22;6555;50.468;8.480;2022-10-30T07:24:06;14.70;62.40
12981;DHT22;6555;50.468;8.480;2022-10-30T07:29:37;14.70;62.40
12981;DHT22;6555;50.468;8.480;2022-10-30T07:35:01;14.80;62.60
12981;DHT22;6555;50.468;8.480;2022-10-30T07:40:17;14.80;62.30
12981;DHT22;6555;50.468;8.480;2022-10-30T07:45:34;14.90;62.30
12981;DHT22;6555;50.468;8.480;2022-10-30T07:50:55;14.90;62.40
12981;DHT22;6555;50.468;8.480;2022-10-30T07:55:59;14.90;62.40
12981;DHT22;6555;50.468;8.480;2022-10-30T08:01:32;14.90;62.60
12981;DHT22;6555;50.468;8.480;2022-10-30T08:06:49;14.90;62.80
12981;DHT22;6555;50.468;8.480;2022-10-30T08:11:52;15.00;62.70
12981;DHT22;6555;50.468;8.480;2022-10-30T08:16:57;15.00;62.90
12981;DHT22;6555;50.468;8.480;2022-10-30T08:22:00;15.10;63.20
12981;DHT22;6555;50.468;8.480;2022-10-30T08:27:08;15.10;63.00
12981;DHT22;6555;50.468;8.480;2022-10-30T08:32:14;15.20;63.10
12981;DHT22;6555;50.468;8.480;2022-10-30T08:37:35;15.30;63.10
12981;DHT22;6555;50.468;8.480;2022-10-30T08:42:38;15.30;63.60
12981;DHT22;6555;50.468;8.480;2022-10-30T08:47:46;15.40;63.10
12981;DHT22;6555;50.468;8.480;2022-10-30T08:52:49;15.40;63.40
12981;DHT22;6555;50.468;8.480;2022-10-30T08:57:56;15.50;63.50
12981;DHT22;6555;50.468;8.480;2022-10-30T09:03:00;15.60;63.60
12981;DHT22;6555;50.468;8.480;2022-10-30T09:08:28;15.70;63.70
12981;DHT22;6555;50.468;8.480;2022-10-30T09:13:44;15.80;63.60
12981;DHT22;6555;50.468;8.480;2022-10-30T09:18:49;15.80;63.60
12981;DHT22;6555;50.468;8.480;2022-10-30T09:23:52;15.90;64.20
12981;DHT22;6555;50.468;8.480;2022-10-30T09:29:10;16.00;63.80
12981;DHT22;6555;50.468;8.480;2022-10-30T09:34:33;16.10;63.90
12981;DHT22;6555;50.468;8.480;2022-10-30T09:39:44;16.20;64.10
12981;DHT22;6555;50.468;8.480;2022-10-30T09:44:54;16.30;64.10
12981;DHT22;6555;50.468;8.480;2022-10-30T09:50:24;16.40;64.60
12981;DHT22;6555;50.468;8.480;2022-10-30T09:55:46;16.50;64.80
12981;DHT22;6555;50.468;8.480;2022-10-30T10:01:00;16.70;64.90
12981;DHT22;6555;50.468;8.480;2022-10-30T10:06:16;16.80;64.80
12981;DHT22;6555;50.468;8.480;2022-10-30T10:11:47;16.90;64.70
12981;DHT22;6555;50.468;8.480;2022-10-30T10:16:52;17.00;64.50
12981;DHT22;6555;50.468;8.480;2022-10-30T10:21:59;17.10;64.60
12981;DHT22;6555;50.468;8.480;2022-10-30T10:27:08;17.20;65.00
12981;DHT22;6555;50.468;8.480;2022-10-30T10:32:35;17.40;65.40
12981;DHT22;6555;50.468;8.480;2022-10-30T10:37:50;17.60;66.00
12981;DHT22;6555;50.468;8.480;2022-10-30T10:43:04;17.80;65.70
12981;DHT22;6555;50.468;8.480;2022-10-30T10:48:32;18.00;65.70
12981;DHT22;6555;50.468;8.480;2022-10-30T10:53:42;18.20;65.80
12981;DHT22;6555;50.468;8.480;2022-10-30T10:58:49;18.30;65.60
12981;DHT22;6555;50.468;8.480;2022-10-30T11:03:56;18.50;65.60
12981;DHT22;6555;50.468;8.480;2022-10-30T11:09:16;18.60;65.60
12981;DHT22;6555;50.468;8.480;2022-10-30T11:14:23;18.80;65.90
12981;DHT22;6555;50.468;8.480;2022-10-30T11:19:27;19.00;65.70
12981;DHT22;6555;50.468;8.480;2022-10-30T11:24:35;19.10;65.70
12981;DHT22;6555;50.468;8.480;2022-10-30T11:29:48;19.40;65.80
12981;DHT22;6555;50.468;8.480;2022-10-30T11:35:10;19.60;66.30
12981;DHT22;6555;50.468;8.480;2022-10-30T11:40:21;19.80;66.50
12981;DHT22;6555;50.468;8.480;2022-10-30T11:45:27;20.00;66.30
12981;DHT22;6555;50.468;8.480;2022-10-30T11:50:31;20.20;66.20
12981;DHT22;6555;50.468;8.480;2022-10-30T11:55:38;20.50;66.50
12981;DHT22;6555;50.468;8.480;2022-10-30T12:00:41;20.80;66.40
12981;DHT22;6555;50.468;8.480;2022-10-30T12:05:45;20.90;66.10
12981;DHT22;6555;50.468;8.480;2022-10-30T12:10:58;21.10;65.90
12981;DHT22;6555;50.468;8.480;2022-10-30T12:16:07;21.40;65.70
12981;DHT22;6555;50.468;8.480;2022-10-30T12:21:17;21.50;65.30
12981;DHT22;6555;50.468;8.480;2022-10-30T12:26:22;21.60;65.40
12981;DHT22;6555;50.468;8.480;2022-10-30T12:31:33;21.70;65.50
12981;DHT22;6555;50.468;8.480;2022-10-30T12:36:44;21.90;65.80
12981;DHT22;6555;50.468;8.480;2022-10-30T12:41:56;22.10;65.80
12981;DHT22;6555;50.468;8.480;2022-10-30T12:47:05;22.30;65.80
12981;DHT22;6555;50.468;8.480;2022-10-30T12:52:18;22.50;65.80
12981;DHT22;6555;50.468;8.480;2022-10-30T12:57:24;22.80;65.40
12981;DHT22;6555;50.468;8.480;2022-10-30T13:02:39;23.00;64.30
12981;DHT22;6555;50.468;8.480;2022-10-30T13:07:47;23.30;64.40
12981;DHT22;6555;50.468;8.480;2022-10-30T13:12:57;23.60;63.70
12981;DHT22;6555;50.468;8.480;2022-10-30T13:18:13;23.90;62.70
12981;DHT22;6555;50.468;8.480;2022-10-30T13:23:20;24.20;61.90
12981;DHT22;6555;50.468;8.480;2022-10-30T13:28:32;24.50;61.50
12981;DHT22;6555;50.468;8.480;2022-10-30T13:33:38;24.70;60.70
12981;DHT22;6555;50.468;8.480;2022-10-30T13:38:46;25.00;60.50
12981;DHT22;6555;50.468;8.480;2022-10-30T13:44:00;25.20;59.70
12981;DHT22;6555;50.468;8.480;2022-10-30T13:49:27;25.40;58.50
12981;DHT22;6555;50.468;8.480;2022-10-30T13:54:32;25.60;57.80
12981;DHT22;6555;50.468;8.480;2022-10-30T13:59:49;25.70;58.60
12981;DHT22;6555;50.468;8.480;2022-10-30T14:04:59;25.80;56.90
12981;DHT22;6555;50.468;8.480;2022-10-30T14:10:09;25.90;56.90
12981;DHT22;6555;50.468;8.480;2022-10-30T14:15:25;25.90;56.60
12981;DHT22;6555;50.468;8.480;2022-10-30T14:20:28;25.90;55.80
12981;DHT22;6555;50.468;8.480;2022-10-30T14:25:32;25.80;57.00
12981;DHT22;6555;50.468;8.480;2022-10-30T14:30:36;25.80;56.60
12981;DHT22;6555;50.468;8.480;2022-10-30T14:35:39;25.60;56.00
12981;DHT22;6555;50.468;8.480;2022-10-30T14:40:46;25.40;56.30
12981;DHT22;6555;50.468;8.480;2022-10-30T14:46:01;25.30;55.90
12981;DHT22;6555;50.468;8.480;2022-10-30T14:51:13;25.00;55.50
12981;DHT22;6555;50.468;8.480;2022-10-30T14:56:26;24.70;55.50
12981;DHT22;6555;50.468;8.480;2022-10-30T15:01:38;24.50;55.50
12981;DHT22;6555;50.468;8.480;2022-10-30T15:06:51;24.30;55.70
12981;DHT22;6555;50.468;8.480;2022-10-30T15:12:06;24.10;55.50
12981;DHT22;6555;50.468;8.480;2022-10-30T15:17:25;23.90;55.50
12981;DHT22;6555;50.468;8.480;2022-10-30T15:22:29;23.70;55.20
12981;DHT22;6555;50.468;8.480;2022-10-30T15:27:39;23.50;56.00
12981;DHT22;6555;50.468;8.480;2022-10-30T15:32:46;23.30;55.40
12981;DHT22;6555;50.468;8.480;2022-10-30T15:38:00;23.10;55.90
12981;DHT22;6555;50.468;8.480;2022-10-30T15:43:06;22.90;55.30
12981;DHT22;6555;50.468;8.480;2022-10-30T15:48:19;22.80;55.90
12981;DHT22;6555;50.468;8.480;2022-10-30T15:53:31;22.60;55.50
12981;DHT22;6555;50.468;8.480;2022-10-30T15:58:35;22.40;55.70
12981;DHT22;6555;50.468;8.480;2022-10-30T16:03:40;22.20;55.90
12981;DHT22;6555;50.468;8.480;2022-10-30T16:08:49;22.00;55.60
12981;DHT22;6555;50.468;8.480;2022-10-30T16:13:52;21.80;55.90
12981;DHT22;6555;50.468;8.480;2022-10-30T16:19:00;21.60;55.90
12981;DHT22;6555;50.468;8.480;2022-10-30T16:24:05;21.50;55.70
12981;DHT22;6555;50.468;8.480;2022-10-30T16:29:22;21.30;56.00
12981;DHT22;6555;50.468;8.480;2022-10-30T16:34:29;21.10;55.60
12981;DHT22;6555;50.468;8.480;2022-10-30T16:39:35;20.90;55.60
12981;DHT22;6555;50.468;8.480;2022-10-30T16:44:39;20.70;56.00
12981;DHT22;6555;50.468;8.480;2022-10-30T16:49:45;20.50;55.80
12981;DHT22;6555;50.468;8.480;2022-10-30T16:54:56;20.40;55.80
12981;DHT22;6555;50.468;8.480;2022-10-30T17:00:01;20.10;55.80
12981;DHT22;6555;50.468;8.480;2022-10-30T17:05:11;20.00;56.00
12981;DHT22;6555;50.468;8.480;2022-10-30T17:10:29;19.90;56.00
12981;DHT22;6555;50.468;8.480;2022-10-30T17:15:33;19.70;55.90
12981;DHT22;6555;50.468;8.480;2022-10-30T17:20:38;19.60;56.10
12981;DHT22;6555;50.468;8.480;2022-10-30T17:25:41;19.40;56.10
12981;DHT22;6555;50.468;8.480;2022-10-30T17:30:44;19.30;56.20
12981;DHT22;6555;50.468;8.480;2022-10-30T17:35:50;19.10;56.30
12981;DHT22;6555;50.468;8.480;2022-10-30T17:40:53;19.10;56.40
12981;DHT22;6555;50.468;8.480;2022-10-30T17:45:57;19.00;56.70
12981;DHT22;6555;50.468;8.480;2022-10-30T17:51:01;19.00;56.80
12981;DHT22;6555;50.468;8.480;2022-10-30T17:56:09;18.90;56.80
12981;DHT22;6555;50.468;8.480;2022-10-30T18:01:15;18.90;56.60
12981;DHT22;6555;50.468;8.480;2022-10-30T18:06:23;18.90;57.40
12981;DHT22;6555;50.468;8.480;2022-10-30T18:11:26;18.80;56.70
12981;DHT22;6555;50.468;8.480;2022-10-30T18:16:29;18.80;56.80
12981;DHT22;6555;50.468;8.480;2022-10-30T18:21:34;18.80;56.70
12981;DHT22;6555;50.468;8.480;2022-10-30T18:26:37;18.70;56.50
12981;DHT22;6555;50.468;8.480;2022-10-30T18:31:41;18.60;56.50
12981;DHT22;6555;50.468;8.480;2022-10-30T18:36:46;18.50;56.60
12981;DHT22;6555;50.468;8.480;2022-10-30T18:41:49;18.50;56.70
12981;DHT22;6555;50.468;8.480;2022-10-30T18:46:52;18.40;56.70
12981;DHT22;6555;50.468;8.480;2022-10-30T18:52:03;18.30;56.70
12981;DHT22;6555;50.468;8.480;2022-10-30T18:57:06;18.20;56.60
12981;DHT22;6555;50.468;8.480;2022-10-30T19:02:16;18.20;56.70
12981;DHT22;6555;50.468;8.480;2022-10-30T19:07:22;18.10;56.80
12981;DHT22;6555;50.468;8.480;2022-10-30T19:12:25;18.00;56.80
12981;DHT22;6555;50.468;8.480;2022-10-30T19:17:28;17.90;56.80
12981;DHT22;6555;50.468;8.480;2022-10-30T19:22:33;17.80;56.80
12981;DHT22;6555;50.468;8.480;2022-10-30T19:27:36;17.70;56.80
12981;DHT22;6555;50.468;8.480;2022-10-30T19:32:39;17.70;56.70
12981;DHT22;6555;50.468;8.480;2022-10-30T19:37:44;17.60;56.80
12981;DHT22;6555;50.468;8.480;2022-10-30T19:42:47;17.50;56.60
12981;DHT22;6555;50.468;8.480;2022-10-30T19:47:51;17.40;56.50
12981;DHT22;6555;50.468;8.480;2022-10-30T19:52:57;17.20;56.60
12981;DHT22;6555;50.468;8.480;2022-10-30T19:58:01;17.10;56.70
12981;DHT22;6555;50.468;8.480;2022-10-30T20:03:06;17.00;56.70
12981;DHT22;6555;50.468;8.480;2022-10-30T20:08:12;16.90;56.90
12981;DHT22;6555;50.468;8.480;2022-10-30T20:13:16;16.90;57.00
12981;DHT22;6555;50.468;8.480;2022-10-30T20:18:20;16.80;57.10
12981;DHT22;6555;50.468;8.480;2022-10-30T20:23:25;16.80;57.20
12981;DHT22;6555;50.468;8.480;2022-10-30T20:28:32;16.70;57.20
12981;DHT22;6555;50.468;8.480;2022-10-30T20:33:37;16.70;57.20
12981;DHT22;6555;50.468;8.480;2022-10-30T20:38:41;16.60;57.10
12981;DHT22;6555;50.468;8.480;2022-10-30T20:43:44;16.60;57.20
12981;DHT22;6555;50.468;8.480;2022-10-30T20:48:47;16.50;57.10
12981;DHT22;6555;50.468;8.480;2022-10-30T20:53:52;16.50;57.20
12981;DHT22;6555;50.468;8.480;2022-10-30T20:58:55;16.40;57.20
12981;DHT22;6555;50.468;8.480;2022-10-30T21:03:58;16.40;57.20
12981;DHT22;6555;50.468;8.480;2022-10-30T21:09:04;16.30;57.70
12981;DHT22;6555;50.468;8.480;2022-10-30T21:14:07;16.20;56.90
12981;DHT22;6555;50.468;8.480;2022-10-30T21:19:10;16.10;57.00
12981;DHT22;6555;50.468;8.480;2022-10-30T21:24:14;16.00;57.00
12981;DHT22;6555;50.468;8.480;2022-10-30T21:29:17;15.90;57.00
12981;DHT22;6555;50.468;8.480;2022-10-30T21:34:20;15.80;57.10
12981;DHT22;6555;50.468;8.480;2022-10-30T21:39:24;15.80;57.20
12981;DHT22;6555;50.468;8.480;2022-10-30T21:44:27;15.70;57.40
12981;DHT22;6555;50.468;8.480;2022-10-30T21:49:30;15.70;57.50
12981;DHT22;6555;50.468;8.480;2022-10-30T21:54:35;15.60;57.20
12981;DHT22;6555;50.468;8.480;2022-10-30T21:59:39;15.60;57.30
12981;DHT22;6555;50.468;8.480;2022-10-30T22:04:42;15.50;57.30
12981;DHT22;6555;50.468;8.480;2022-10-30T22:09:46;15.50;57.30
12981;DHT22;6555;50.468;8.480;2022-10-30T22:14:49;15.50;57.50
12981;DHT22;6555;50.468;8.480;2022-10-30T22:19:52;15.40;57.40
12981;DHT22;6555;50.468;8.480;2022-10-30T22:24:56;15.40;57.40
12981;DHT22;6555;50.468;8.480;2022-10-30T22:29:59;15.30;57.40
12981;DHT22;6555;50.468;8.480;2022-10-30T22:35:02;15.30;57.20
12981;DHT22;6555;50.468;8.480;2022-10-30T22:40:08;15.20;57.20
12981;DHT22;6555;50.468;8.480;2022-10-30T22:45:11;15.10;57.50
12981;DHT22;6555;50.468;8.480;2022-10-30T22:50:14;15.10;57.60
12981;DHT22;6555;50.468;8.480;2022-10-30T22:55:18;15.00;57.50
12981;DHT22;6555;50.468;8.480;2022-10-30T23:00:24;15.00;57.60
12981;DHT22;6555;50.468;8.480;2022-10-30T23:05:28;15.00;57.60
12981;DHT22;6555;50.468;8.480;2022-10-30T23:10:33;15.00;57.50
12981;DHT22;6555;50.468;8.480;2022-10-30T23:15:37;14.90;57.60
12981;DHT22;6555;50.468;8.480;2022-10-30T23:20:41;14.90;57.70
12981;DHT22;6555;50.468;8.480;2022-10-30T23:25:45;14.80;57.70
12981;DHT22;6555;50.468;8.480;2022-10-30T23:30:48;14.80;57.80
12981;DHT22;6555;50.468;8.480;2022-10-30T23:35:57;14.80;57.90
12981;DHT22;6555;50.468;8.480;2022-10-30T23:41:01;14.80;58.00
12981;DHT22;6555;50.468;8.480;2022-10-30T23:46:04;14.80;58.00
12981;DHT22;6555;50.468;8.480;2022-10-30T23:51:08;14.80;58.00
12981;DHT22;6555;50.468;8.480;2022-10-30T23:56:12;14.80;57.90
